Toulon, Nevada
Current Conditions -  °F | °C
As of 1:53 AM on Thursday 23 Oct 2014 (Local Time) from KLOL Reporting Station
Clear Clear  
Wind Chill: 49°   Ceiling: Unl
Heat Index: 49°   Visibility: 10mi
Dew Point: 22°   Wind: 0mph
Humidity: 35%   Direction: NA
Pressure: 30.06"   Gusts: NA
Location:  40.3545°N, 118.628°W
Report Text: KLOL 230853Z AUTO 00000KT 10SM CLR 09/M06 A3006 RMK AO2 SLP164 T00941056 55001
Loading
Personal Weather Stations






























Interactive Weather Map New forecast layout! Learn more

10-Day Weather Forecast

Advertisements
Track Severe Weather on mobile